createdAt,value
2018-06-17T14:02:30.903Z,7.88
2018-06-17T14:08:25.057Z,3.4
2018-06-17T14:14:20.068Z,3.74
2018-06-17T14:20:15.055Z,3.41
2018-06-17T14:26:10.004Z,3.99
2018-06-17T14:32:05.030Z,3.81
2018-06-17T14:38:00.063Z,3.99
2018-06-17T14:43:55.079Z,4.56
2018-06-17T14:49:50.057Z,3.97
2018-06-17T14:55:45.051Z,3.89
2018-06-17T15:01:40.033Z,4.1
2018-06-17T15:07:35.063Z,3.8
2018-06-17T15:13:30.074Z,3.73
2018-06-17T15:19:25.065Z,4.06
2018-06-17T15:25:20.126Z,3.99
2018-06-17T15:31:15.053Z,3.68
2018-06-17T15:37:10.149Z,3.5
2018-06-17T15:43:05.059Z,3.23
2018-06-17T15:49:00.116Z,3.69
2018-06-17T15:54:55.095Z,3.53
2018-06-17T16:00:50.101Z,3.56
2018-06-17T16:06:45.099Z,4.27
2018-06-17T16:12:40.134Z,3.75
2018-06-17T16:18:35.157Z,4.96
2018-06-17T16:24:30.139Z,4.06
2018-06-17T16:30:25.101Z,3.77
2018-06-17T16:36:20.121Z,3.9
2018-06-17T16:42:15.146Z,3.52
2018-06-17T16:48:10.111Z,3.91
2018-06-17T16:54:05.171Z,3.88
2018-06-17T17:00:00.147Z,4.08
2018-06-17T17:05:55.127Z,4.19
2018-06-17T17:11:50.188Z,4.09
2018-06-17T17:17:45.191Z,3.81
2018-06-17T17:23:40.197Z,4.19
2018-06-17T17:29:35.224Z,4.58
2018-06-17T17:35:30.148Z,4.49
2018-06-17T17:41:25.205Z,4.05
2018-06-17T17:47:20.269Z,4.25
2018-06-17T17:53:15.223Z,3.81
2018-06-17T17:59:10.222Z,3.98
2018-06-17T18:05:05.188Z,4.14
2018-06-17T18:11:00.205Z,4.25
2018-06-17T18:16:55.196Z,4.24
2018-06-17T18:22:50.248Z,4.61
2018-06-17T18:28:45.204Z,4.21
2018-06-17T18:34:40.187Z,4.66
2018-06-17T18:40:35.205Z,4.66
2018-06-17T18:46:30.225Z,4.9
2018-06-17T18:52:25.259Z,5.01
2018-06-17T18:58:20.238Z,4.76
2018-06-17T19:04:15.273Z,4.78
2018-06-17T19:10:10.233Z,5.03
2018-06-17T19:16:05.287Z,5.27
2018-06-17T19:22:00.229Z,5.33
2018-06-17T19:27:55.272Z,5.58
2018-06-17T19:33:50.249Z,5.15
2018-06-17T19:39:45.344Z,5.23
2018-06-17T19:45:40.278Z,5.52
2018-06-17T19:51:35.306Z,5.53
2018-06-17T19:57:30.305Z,5.69
2018-06-17T20:03:25.269Z,5.92
2018-06-17T20:09:20.366Z,5.61
2018-06-17T20:15:15.272Z,4.98
2018-06-17T20:21:10.298Z,5.44
2018-06-17T20:27:05.306Z,5.68
2018-06-17T20:33:00.316Z,5.78
2018-06-17T20:38:55.273Z,5.67
2018-06-17T20:44:50.290Z,5.42
2018-06-17T20:50:45.338Z,6.5
2018-06-17T20:56:40.314Z,5.98
2018-06-17T21:02:35.329Z,6.44
2018-06-17T21:08:30.305Z,6.21
2018-06-17T21:14:25.354Z,6.15
2018-06-17T21:20:20.368Z,7.05
2018-06-17T21:26:15.355Z,6.83
2018-06-17T21:32:10.327Z,7.14
2018-06-17T21:38:05.374Z,7.1
2018-06-17T21:44:00.386Z,7.06
2018-06-17T21:49:55.388Z,7.21
2018-06-17T21:55:50.362Z,7.04
2018-06-17T22:01:45.366Z,7.32
2018-06-17T22:07:40.433Z,6.9
2018-06-17T22:13:35.396Z,7.23
2018-06-17T22:19:30.385Z,7.21
2018-06-17T22:25:25.348Z,7.14
2018-06-17T22:31:20.379Z,7.3
2018-06-17T22:37:15.428Z,7.17
2018-06-17T22:43:10.442Z,6.81
2018-06-17T22:49:05.413Z,7.22
2018-06-17T22:55:00.369Z,6.45
2018-06-17T23:00:55.389Z,7.26
2018-06-17T23:06:50.460Z,7.13
2018-06-17T23:12:45.427Z,7.52
2018-06-17T23:18:40.422Z,7.51
2018-06-17T23:24:35.445Z,7.59
2018-06-17T23:30:30.438Z,7.94
2018-06-17T23:36:25.413Z,7.52
2018-06-17T23:42:20.430Z,7.12
2018-06-17T23:48:15.448Z,7.2
2018-06-17T23:54:10.470Z,8.14
